Terminal Aerodrome Forecast
Issued by NWS

Home | Current Version | Previous Version | Text Only | Print | Product List | Glossary On
Versions: 1 2 3 4 5 6 7 8 9 10 11 12 13 14 15 16
000
FTUS46 KPDT 242327
TAFDLS
TAF
KDLS 242327Z 2500/2524 32022G32KT P6SM FEW250
     FM250300 32017G27KT P6SM FEW200
     FM250600 31014G24KT P6SM SCT200
     FM251000 31011KT P6SM BKN200
     FM251500 31014G20KT P6SM BKN200
     FM251800 32015G25KT P6SM SKC=

USA.gov is the U.S. government's official web portal to all federal, state and local government web resources and services.